createdAt,value
2022-10-22T00:02:36.890Z,15.07
2022-10-22T00:05:38.600Z,14.80
2022-10-22T00:08:40.259Z,14.90
2022-10-22T00:11:42.207Z,15.17
2022-10-22T00:14:43.880Z,15.57
2022-10-22T00:17:45.463Z,15.50
2022-10-22T00:20:47.090Z,14.98
2022-10-22T00:23:48.738Z,15.50
2022-10-22T00:26:50.352Z,14.90
2022-10-22T00:29:51.956Z,15.13
2022-10-22T00:32:53.528Z,14.73
2022-10-22T00:35:55.120Z,15.20
2022-10-22T00:38:56.762Z,14.85
2022-10-22T00:41:58.481Z,15.10
2022-10-22T00:45:03.417Z,14.60
2022-10-22T00:48:07.191Z,15.00
2022-10-22T00:51:08.795Z,13.65
2022-10-22T00:54:10.540Z,15.55
2022-10-22T00:57:12.079Z,17.47
2022-10-22T01:00:14.139Z,15.50
2022-10-22T01:03:15.716Z,15.57
2022-10-22T01:06:28.125Z,16.05
2022-10-22T01:09:29.660Z,15.95
2022-10-22T01:12:51.720Z,16.83
2022-10-22T01:16:05.412Z,16.57
2022-10-22T01:19:40.644Z,16.25
2022-10-22T01:22:42.217Z,15.45
2022-10-22T01:26:05.786Z,15.30
2022-10-22T01:29:29.228Z,16.00
2022-10-22T01:32:31.804Z,16.20
2022-10-22T01:35:35.721Z,16.25
2022-10-22T01:38:37.294Z,17.20
2022-10-22T01:41:39.591Z,15.95
2022-10-22T01:44:41.229Z,16.50
2022-10-22T01:48:04.884Z,15.73
2022-10-22T01:51:12.512Z,15.40
2022-10-22T01:54:32.545Z,15.27
2022-10-22T01:57:47.984Z,13.50
2022-10-22T02:00:58.457Z,11.80
2022-10-22T02:04:09.061Z,12.47
2022-10-22T02:07:11.663Z,12.15
2022-10-22T02:10:13.298Z,11.70
2022-10-22T02:13:48.396Z,10.85
2022-10-22T02:16:50.047Z,12.37
2022-10-22T02:20:18.669Z,11.40
2022-10-22T02:23:20.956Z,11.05
2022-10-22T02:26:27.367Z,11.70
2022-10-22T02:29:33.009Z,11.68
2022-10-22T02:32:52.095Z,12.27
2022-10-22T02:35:53.661Z,10.40
2022-10-22T02:38:55.261Z,10.13
2022-10-22T02:41:58.089Z,11.15
2022-10-22T02:44:59.678Z,11.05
2022-10-22T02:48:01.250Z,10.93
2022-10-22T02:51:02.902Z,10.80
2022-10-22T02:54:04.487Z,10.50
2022-10-22T02:57:06.156Z,11.15
2022-10-22T03:00:08.248Z,10.77
2022-10-22T03:03:10.214Z,11.23
2022-10-22T03:06:11.898Z,10.63
2022-10-22T03:09:13.559Z,10.90
2022-10-22T03:12:15.130Z,10.63
2022-10-22T03:15:16.801Z,11.20
2022-10-22T03:18:18.448Z,11.00
2022-10-22T03:21:20.007Z,11.40
2022-10-22T03:24:30.359Z,10.35
2022-10-22T03:27:31.897Z,10.10
2022-10-22T03:30:33.511Z,10.15
2022-10-22T03:33:35.140Z,11.10
2022-10-22T03:36:36.731Z,10.23
2022-10-22T03:39:38.340Z,9.98
2022-10-22T03:42:40.695Z,10.48
2022-10-22T03:45:42.286Z,10.05
2022-10-22T03:48:43.838Z,10.10
2022-10-22T03:51:45.437Z,9.37
2022-10-22T03:54:47.052Z,11.23
2022-10-22T03:57:48.649Z,11.70
2022-10-22T04:00:50.291Z,10.32
2022-10-22T04:03:51.926Z,11.00
2022-10-22T04:06:53.507Z,10.43
2022-10-22T04:09:55.126Z,11.40
2022-10-22T04:12:56.937Z,9.48
2022-10-22T04:16:09.555Z,10.40
2022-10-22T04:19:11.121Z,11.30
2022-10-22T04:22:12.726Z,10.85
2022-10-22T04:25:14.310Z,10.52
2022-10-22T04:28:15.892Z,11.25
2022-10-22T04:31:19.656Z,10.67
2022-10-22T04:34:21.234Z,10.77
2022-10-22T04:37:22.823Z,11.13
2022-10-22T04:40:24.398Z,10.50
2022-10-22T04:43:26.013Z,11.43
2022-10-22T04:46:29.404Z,10.57
2022-10-22T04:49:30.997Z,10.87
2022-10-22T04:52:32.614Z,10.77
2022-10-22T04:55:34.149Z,10.80
2022-10-22T04:58:35.755Z,11.43
2022-10-22T05:01:42.971Z,11.17
2022-10-22T05:04:44.962Z,10.80
2022-10-22T05:07:46.624Z,10.80
2022-10-22T05:10:48.172Z,10.85
2022-10-22T05:13:49.786Z,11.33
2022-10-22T05:16:51.595Z,10.50
2022-10-22T05:19:53.156Z,10.48
2022-10-22T05:22:54.706Z,10.88
2022-10-22T05:25:56.350Z,10.93
2022-10-22T05:28:57.901Z,10.60
2022-10-22T05:31:59.565Z,11.67
2022-10-22T05:35:01.147Z,10.93
2022-10-22T05:38:02.697Z,11.25
2022-10-22T05:41:06.448Z,11.13
2022-10-22T05:44:08.021Z,11.93
2022-10-22T05:47:10.096Z,11.77
2022-10-22T05:50:11.720Z,13.43
2022-10-22T05:53:13.320Z,12.38
2022-10-22T05:56:15.977Z,11.85
2022-10-22T05:59:17.630Z,12.30
2022-10-22T06:02:19.274Z,12.25
2022-10-22T06:05:20.870Z,12.05
2022-10-22T06:08:22.466Z,12.88
2022-10-22T06:11:24.062Z,11.87
2022-10-22T06:14:26.023Z,12.85
2022-10-22T06:17:27.637Z,12.70
2022-10-22T06:20:29.287Z,12.05
2022-10-22T06:23:30.846Z,12.00
2022-10-22T06:26:32.493Z,11.27
2022-10-22T06:29:34.302Z,12.70
2022-10-22T06:32:35.896Z,12.60
2022-10-22T06:35:37.467Z,12.63
2022-10-22T06:38:39.443Z,13.63
2022-10-22T06:41:41.131Z,13.90
2022-10-22T06:44:42.693Z,12.90
2022-10-22T06:47:47.715Z,13.70
2022-10-22T06:50:49.272Z,13.32
2022-10-22T06:53:50.928Z,11.82
2022-10-22T06:56:52.510Z,12.77
2022-10-22T06:59:54.066Z,12.75
2022-10-22T07:02:58.999Z,13.35
2022-10-22T07:06:02.331Z,13.05
2022-10-22T07:09:04.104Z,13.10
2022-10-22T07:12:06.094Z,12.03
2022-10-22T07:15:08.028Z,12.20
2022-10-22T07:18:09.659Z,13.07
2022-10-22T07:21:11.731Z,12.80
2022-10-22T07:24:17.557Z,12.25
2022-10-22T07:27:19.146Z,12.63
2022-10-22T07:30:20.751Z,12.77
2022-10-22T07:33:22.347Z,13.25
2022-10-22T07:36:23.944Z,12.93
2022-10-22T07:39:26.000Z,12.65
2022-10-22T07:42:27.567Z,12.57
2022-10-22T07:45:29.210Z,12.27
2022-10-22T07:48:30.754Z,13.07
2022-10-22T07:51:32.355Z,12.57
2022-10-22T07:54:33.950Z,13.38
2022-10-22T07:57:37.234Z,12.97
2022-10-22T08:00:38.784Z,13.00
2022-10-22T08:03:40.365Z,12.98
2022-10-22T08:06:45.753Z,13.32
2022-10-22T08:09:53.356Z,14.52
2022-10-22T08:12:55.006Z,14.33
2022-10-22T08:16:00.321Z,13.57
2022-10-22T08:19:01.927Z,14.63
2022-10-22T08:22:03.733Z,15.60
2022-10-22T08:25:09.208Z,14.18
2022-10-22T08:28:10.803Z,15.37
2022-10-22T08:31:12.427Z,15.40
2022-10-22T08:34:13.998Z,16.65
2022-10-22T08:37:17.181Z,15.30
2022-10-22T08:40:36.836Z,16.60
2022-10-22T08:43:41.314Z,16.07
2022-10-22T08:47:12.093Z,15.25
2022-10-22T08:50:16.486Z,16.08
2022-10-22T08:53:39.084Z,15.43
2022-10-22T08:56:42.800Z,15.80
2022-10-22T08:59:55.433Z,14.67
2022-10-22T09:03:10.517Z,16.08
2022-10-22T09:06:14.977Z,15.75
2022-10-22T09:09:17.717Z,15.43
2022-10-22T09:12:23.251Z,16.02
2022-10-22T09:15:24.858Z,15.50
2022-10-22T09:18:47.459Z,15.05
2022-10-22T09:22:26.454Z,15.38
2022-10-22T09:25:35.726Z,14.52
2022-10-22T09:28:41.248Z,15.13
2022-10-22T09:31:42.808Z,14.63
2022-10-22T09:34:48.303Z,14.38
2022-10-22T09:37:53.749Z,14.35
2022-10-22T09:40:59.856Z,14.55
2022-10-22T09:44:01.444Z,13.50
2022-10-22T09:47:06.716Z,14.27
2022-10-22T09:50:28.362Z,14.60
2022-10-22T09:53:30.589Z,15.43
2022-10-22T09:56:40.926Z,16.52
2022-10-22T09:59:43.052Z,15.20
2022-10-22T10:02:44.677Z,14.27
2022-10-22T10:05:52.022Z,14.45
2022-10-22T10:08:53.850Z,13.98
2022-10-22T10:12:19.299Z,14.23
2022-10-22T10:15:28.343Z,13.98
2022-10-22T10:18:44.939Z,13.40
2022-10-22T10:21:53.266Z,13.60
2022-10-22T10:25:19.246Z,12.43
2022-10-22T10:28:36.360Z,13.10
2022-10-22T10:31:47.008Z,12.27
2022-10-22T10:35:04.880Z,11.70
2022-10-22T10:38:23.558Z,11.73
2022-10-22T10:41:37.048Z,10.70
2022-10-22T10:44:50.243Z,11.45
2022-10-22T10:48:12.533Z,11.85
2022-10-22T10:51:20.187Z,11.30
2022-10-22T10:54:33.967Z,11.75
2022-10-22T10:58:01.216Z,11.35
2022-10-22T11:01:26.088Z,11.38
2022-10-22T11:04:55.298Z,12.63
2022-10-22T11:08:03.403Z,10.90
2022-10-22T11:14:41.102Z,10.70
2022-10-22T11:17:46.726Z,10.57
2022-10-22T11:21:14.494Z,10.68
2022-10-22T11:24:28.665Z,9.17
2022-10-22T11:27:46.415Z,8.93
2022-10-22T11:30:52.228Z,8.95
2022-10-22T11:34:32.770Z,9.70
2022-10-22T11:37:35.746Z,8.70
2022-10-22T11:40:37.344Z,8.50
2022-10-22T11:43:59.070Z,7.82
2022-10-22T11:47:24.420Z,8.27
2022-10-22T11:51:04.361Z,8.43
2022-10-22T11:54:42.928Z,9.27
2022-10-22T11:57:44.636Z,8.07
2022-10-22T12:00:47.096Z,8.00
2022-10-22T12:03:50.568Z,7.00
2022-10-22T12:06:53.255Z,6.88
2022-10-22T12:09:55.206Z,6.05
2022-10-22T12:13:24.953Z,5.83
2022-10-22T12:16:58.385Z,6.07
2022-10-22T12:20:04.892Z,6.30
2022-10-22T12:23:06.628Z,5.57
2022-10-22T12:26:25.573Z,5.10
2022-10-22T12:29:32.126Z,5.07
2022-10-22T12:32:38.503Z,5.57
2022-10-22T12:35:44.294Z,5.65
2022-10-22T12:38:52.672Z,5.57
2022-10-22T12:41:54.526Z,5.47
2022-10-22T12:45:00.600Z,5.47
2022-10-22T12:48:04.632Z,5.20
2022-10-22T12:51:09.587Z,5.32
2022-10-22T12:54:21.808Z,5.50
2022-10-22T12:57:24.708Z,5.35
2022-10-22T13:00:28.863Z,5.33
2022-10-22T13:03:40.619Z,5.22
2022-10-22T13:07:18.339Z,6.00
2022-10-22T13:10:27.719Z,5.85
2022-10-22T13:13:34.369Z,6.38
2022-10-22T13:16:38.952Z,5.50
2022-10-22T13:19:52.880Z,6.47
2022-10-22T13:22:58.432Z,5.75
2022-10-22T13:26:16.598Z,5.15
2022-10-22T13:29:19.420Z,4.80
2022-10-22T13:32:33.854Z,6.07
2022-10-22T13:35:36.753Z,5.25
2022-10-22T13:38:38.366Z,6.32
2022-10-22T13:44:47.088Z,8.00
2022-10-22T13:47:51.021Z,7.60
2022-10-22T13:50:52.614Z,9.23
2022-10-22T13:53:54.193Z,8.55
2022-10-22T13:56:55.831Z,8.82
2022-10-22T13:59:57.434Z,9.75
2022-10-22T14:02:59.075Z,10.60
2022-10-22T14:06:00.819Z,9.82
2022-10-22T14:09:04.639Z,9.48
2022-10-22T14:12:13.999Z,9.43
2022-10-22T14:15:21.013Z,9.68
2022-10-22T14:18:27.314Z,8.80
2022-10-22T14:21:30.369Z,9.68
2022-10-22T14:24:31.951Z,9.93
2022-10-22T14:27:33.541Z,10.68
2022-10-22T14:30:39.557Z,12.18
2022-10-22T14:33:44.175Z,11.67
2022-10-22T14:36:45.824Z,12.98
2022-10-22T14:39:54.126Z,13.52
2022-10-22T14:42:55.836Z,13.73
2022-10-22T14:46:01.766Z,12.75
2022-10-22T14:49:03.338Z,12.57
2022-10-22T14:52:04.986Z,13.05
2022-10-22T14:55:07.159Z,13.70
2022-10-22T14:58:08.751Z,13.27
2022-10-22T15:01:10.466Z,13.38
2022-10-22T15:04:12.154Z,13.07
2022-10-22T15:07:16.916Z,13.55
2022-10-22T15:10:20.667Z,13.73
2022-10-22T15:13:22.223Z,12.75
2022-10-22T15:16:27.157Z,12.82
2022-10-22T15:19:29.623Z,12.87
2022-10-22T15:22:32.046Z,13.80
2022-10-22T15:25:33.657Z,14.50
2022-10-22T15:28:36.399Z,14.48
2022-10-22T15:31:43.859Z,14.32
2022-10-22T15:34:48.525Z,13.60
2022-10-22T15:37:53.123Z,13.63
2022-10-22T15:41:05.262Z,14.18
2022-10-22T15:44:08.678Z,14.45
2022-10-22T15:47:13.279Z,13.75
2022-10-22T15:50:18.794Z,12.83
2022-10-22T15:53:20.435Z,13.77
2022-10-22T15:56:22.197Z,13.68
2022-10-22T15:59:23.961Z,13.50
2022-10-22T16:02:25.622Z,13.30
2022-10-22T16:05:27.423Z,13.00
2022-10-22T16:08:29.183Z,13.07
2022-10-22T16:11:30.770Z,13.05
2022-10-22T16:14:32.395Z,13.40
2022-10-22T16:17:33.958Z,13.13
2022-10-22T16:20:45.147Z,13.20
2022-10-22T16:23:46.722Z,12.80
2022-10-22T16:26:48.472Z,14.35
2022-10-22T16:29:50.158Z,13.02
2022-10-22T16:32:56.503Z,14.45
2022-10-22T16:35:58.560Z,13.53
2022-10-22T16:39:00.123Z,13.77
2022-10-22T16:42:01.712Z,13.57
2022-10-22T16:45:03.802Z,14.10
2022-10-22T16:48:08.663Z,13.43
2022-10-22T16:51:11.256Z,14.43
2022-10-22T16:54:15.936Z,14.07
2022-10-22T16:57:17.535Z,14.55
2022-10-22T17:00:20.047Z,14.95
2022-10-22T17:03:23.480Z,14.48
2022-10-22T17:06:27.660Z,13.73
2022-10-22T17:09:29.255Z,14.23
2022-10-22T17:12:35.328Z,15.63
2022-10-22T17:15:37.078Z,14.60
2022-10-22T17:18:39.356Z,15.90
2022-10-22T17:21:44.940Z,15.90
2022-10-22T17:24:46.508Z,16.58
2022-10-22T17:27:48.160Z,15.85
2022-10-22T17:30:49.750Z,15.82
2022-10-22T17:33:56.191Z,16.08
2022-10-22T17:37:00.150Z,15.50
2022-10-22T17:40:02.400Z,15.95
2022-10-22T17:43:03.979Z,17.23
2022-10-22T17:46:09.049Z,15.80
2022-10-22T17:49:18.823Z,15.82
2022-10-22T17:52:20.803Z,15.00
2022-10-22T17:55:22.442Z,14.38
2022-10-22T17:58:24.040Z,15.48
2022-10-22T18:01:29.763Z,14.10
2022-10-22T18:04:31.901Z,14.30
2022-10-22T18:07:33.523Z,14.43
2022-10-22T18:10:38.790Z,13.68
2022-10-22T18:13:40.409Z,14.48
2022-10-22T18:16:42.134Z,14.20
2022-10-22T18:19:46.523Z,14.00
2022-10-22T18:22:48.148Z,13.63
2022-10-22T18:25:49.796Z,13.13
2022-10-22T18:28:51.459Z,13.75
2022-10-22T18:31:53.045Z,12.48
2022-10-22T18:34:54.634Z,12.82
2022-10-22T18:37:56.169Z,12.87
2022-10-22T18:40:57.767Z,13.10
2022-10-22T18:44:04.758Z,13.35
2022-10-22T18:47:06.855Z,12.93
2022-10-22T18:50:09.187Z,13.20
2022-10-22T18:53:10.909Z,14.07
2022-10-22T18:56:12.678Z,13.75
2022-10-22T18:59:21.994Z,14.27
2022-10-22T19:02:23.618Z,13.55
2022-10-22T19:05:25.195Z,14.05
2022-10-22T19:08:30.645Z,14.13
2022-10-22T19:11:32.467Z,13.65
2022-10-22T19:14:34.165Z,14.23
2022-10-22T19:17:35.801Z,13.38
2022-10-22T19:20:41.885Z,13.90
2022-10-22T19:26:51.759Z,13.48
2022-10-22T19:29:53.322Z,12.38
2022-10-22T19:32:54.915Z,12.52
2022-10-22T19:35:56.500Z,11.95
2022-10-22T19:38:58.750Z,11.73
2022-10-22T19:42:01.616Z,12.07
2022-10-22T19:45:04.662Z,11.50
2022-10-22T19:48:06.575Z,10.32
2022-10-22T19:51:09.554Z,12.32
2022-10-22T19:54:18.388Z,10.60
2022-10-22T19:57:20.116Z,10.48
2022-10-22T20:00:21.748Z,10.35
2022-10-22T20:03:23.352Z,9.45
2022-10-22T20:06:24.905Z,9.55
2022-10-22T20:09:29.865Z,8.97
2022-10-22T20:12:31.474Z,9.13
2022-10-22T20:15:33.083Z,8.93
2022-10-22T20:18:37.548Z,8.40
2022-10-22T20:21:40.360Z,9.15
2022-10-22T20:24:44.801Z,8.10
2022-10-22T20:27:46.346Z,8.40
2022-10-22T20:30:47.904Z,8.93
2022-10-22T20:33:50.590Z,8.43
2022-10-22T20:36:52.135Z,8.30
2022-10-22T20:39:53.730Z,8.40
2022-10-22T20:42:55.291Z,9.40
2022-10-22T20:45:57.033Z,9.32
2022-10-22T20:49:00.212Z,8.63
2022-10-22T20:52:02.100Z,8.65
2022-10-22T20:55:04.106Z,9.83
2022-10-22T20:58:05.766Z,8.93
2022-10-22T21:01:10.499Z,9.88
2022-10-22T21:04:12.249Z,10.30
2022-10-22T21:07:13.825Z,10.40
2022-10-22T21:10:15.476Z,10.10
2022-10-22T21:13:19.500Z,10.70
2022-10-22T21:16:21.092Z,10.52
2022-10-22T21:19:22.783Z,10.98
2022-10-22T21:22:24.385Z,10.67
2022-10-22T21:25:30.134Z,11.47
2022-10-22T21:28:35.789Z,12.30
2022-10-22T21:31:37.684Z,12.23
2022-10-22T21:34:39.290Z,12.85
2022-10-22T21:37:41.163Z,13.17
2022-10-22T21:40:46.411Z,12.90
2022-10-22T21:43:48.021Z,12.55
2022-10-22T21:46:49.593Z,12.50
2022-10-22T21:49:51.189Z,12.43
2022-10-22T21:52:52.755Z,12.57
2022-10-22T21:55:54.330Z,13.17
2022-10-22T21:58:56.038Z,13.35
2022-10-22T22:02:02.197Z,14.55
2022-10-22T22:05:06.808Z,14.20
2022-10-22T22:08:08.379Z,14.67
2022-10-22T22:11:20.883Z,15.20
2022-10-22T22:14:22.454Z,13.13
2022-10-22T22:17:24.101Z,14.27
2022-10-22T22:20:25.740Z,14.70
2022-10-22T22:23:27.406Z,13.77
2022-10-22T22:26:29.930Z,13.93
2022-10-22T22:29:31.850Z,13.70
2022-10-22T22:32:33.455Z,14.65
2022-10-22T22:35:37.019Z,14.40
2022-10-22T22:38:38.980Z,14.60
2022-10-22T22:41:41.341Z,14.87
2022-10-22T22:44:42.925Z,14.63
2022-10-22T22:47:44.781Z,15.10
2022-10-22T22:50:46.461Z,15.75
2022-10-22T22:53:48.131Z,14.87
2022-10-22T22:56:49.982Z,16.60
2022-10-22T22:59:51.566Z,15.50
2022-10-22T23:02:56.180Z,16.02
2022-10-22T23:05:57.767Z,16.25
2022-10-22T23:08:59.602Z,15.93
2022-10-22T23:12:04.549Z,15.10
2022-10-22T23:15:06.565Z,15.20
2022-10-22T23:18:08.131Z,14.52
2022-10-22T23:21:14.714Z,14.63
2022-10-22T23:24:17.770Z,15.23
2022-10-22T23:27:19.340Z,15.83
2022-10-22T23:30:20.932Z,15.05
2022-10-22T23:33:22.506Z,15.13
2022-10-22T23:36:24.124Z,14.88
2022-10-22T23:39:27.083Z,14.33
2022-10-22T23:42:28.664Z,14.33
2022-10-22T23:45:33.702Z,14.55
2022-10-22T23:48:35.411Z,13.05
2022-10-22T23:51:37.157Z,13.68
2022-10-22T23:54:38.726Z,14.07
2022-10-22T23:57:40.307Z,13.33
